Spring Lake, Michigan
Current Conditions -  °F | °C
As of 2:55 AM on Wednesday 22 Oct 2014 (Local Time) from KMKG Reporting Station
Clear Clear  
Wind Chill:   Ceiling: Unl
Heat Index:   Visibility: 10mi
Dew Point: -1°   Wind: 6mph
Humidity: 79%   Direction: 70°ENE
Pressure: 30.3"   Gusts: NA
Location:  43.08°N, 86.2°W
Report Text: KMKG 220655Z AUTO 07005KT 10SM CLR 02/M01 A3030 RMK AO2 SLP265 T00221011
Loading
Personal Weather Stations






























Interactive Weather Map
Tropical Storm Tracking
New forecast layout! Learn more

10-Day Weather Forecast

Advertisements
Track Severe Weather on mobile